KDCA/DCA METAR and TAF weather

Enter ICAO airport designator
Station Type Date Time Source
KDCA METAR 2018/07/21 03:52 UTC NOAA

KDCA 210352Z 13006KT 10SM BKN210 24/18 A3005 RMK AO2 SLP174 T02440178


Station Type Date Time Source
KDCA Decoded METAR 2018/07/21 03:52 UTC NOAA

WASHINGTON NATIONAL AIRPORT , VA, United States (KDCA) 38-51N 077-02W 18M
Jul 20, 2018 - 11:52 PM EDT / 2018.07.21 0352 UTC
Wind: from the SE (130 degrees) at 7 MPH (6 KT):0
Visibility: 10 mile(s):0
Sky conditions: mostly cloudy
Temperature: 75.9 F (24.4 C)
Dew Point: 64.0 F (17.8 C)
Relative Humidity: 66%
Pressure (altimeter): 30.05 in. Hg (1017 hPa)
ob: KDCA 210352Z 13006KT 10SM BKN210 24/18 A3005 RMK AO2 SLP174 T02440178
cycle: 4

Station Type Date Time Source
KDCA TAF 2018/07/20 21:51 UTC NOAA

TAF
AMD KDCA 202049Z 2021/2124 14008KT P6SM SCT050 BKN150
FM202200 13008KT P6SM FEW050 SCT150
FM210000 14007KT P6SM SCT200
FM211000 08006KT 5SM -RA OVC045
FM211200 07008KT 5SM +RA OVC025
FM211600 07010G20KT 3SM +RA OVC010
FM212000 03012G21KT 3SM +RA OVC010


Example: see airport list